Time;durP1;ratioP1;P1;durP2;ratioP2;P2;SDS_P1;SDS_P2;PMS_P1;PMS_P2;Temp;Humidity;BMP_temperature;BMP_pressure;BME280_temperature;BME280_humidity;BME280_pressure;Samples;Min_cycle;Max_cycle;Signal;HPM_P1;HPM_P2
2021/05/22 00:02:16;;;;;;;1.80;0.80;;;11.70;99.90;;;;;;4959045;28;20023;-78
2021/05/22 00:04:41;;;;;;;0.40;0.40;;;11.60;99.90;;;;;;4959086;28;20044;-78
2021/05/22 00:07:07;;;;;;;0.75;0.50;;;11.60;99.90;;;;;;4945320;29;20031;-78
2021/05/22 00:09:33;;;;;;;1.35;0.50;;;11.60;99.90;;;;;;4935179;29;20047;-76
2021/05/22 00:11:58;;;;;;;0.75;0.52;;;11.60;99.90;;;;;;4935843;29;20036;-78
2021/05/22 00:14:24;;;;;;;1.35;1.00;;;11.60;99.90;;;;;;4934562;29;20055;-77
2021/05/22 00:16:49;;;;;;;1.10;0.65;;;11.50;99.90;;;;;;4935851;29;20031;-78
2021/05/22 00:19:17;;;;;;;1.60;0.60;;;11.60;99.90;;;;;;4935391;29;20035;-77
2021/05/22 00:21:42;;;;;;;3.30;0.70;;;11.50;99.90;;;;;;4934671;29;20024;-78
2021/05/22 00:24:08;;;;;;;2.15;0.70;;;11.50;99.90;;;;;;4934649;29;20031;-78
2021/05/22 00:26:34;;;;;;;0.77;0.50;;;11.60;99.90;;;;;;4934221;29;20140;-79
2021/05/22 00:29:00;;;;;;;2.92;0.68;;;11.50;99.90;;;;;;4935654;29;20024;-78
2021/05/22 00:31:25;;;;;;;1.38;0.60;;;11.40;99.90;;;;;;4934905;29;20111;-78
2021/05/22 00:33:51;;;;;;;3.28;0.70;;;11.50;99.90;;;;;;4934218;29;20027;-78
2021/05/22 00:36:16;;;;;;;2.78;0.73;;;11.50;99.90;;;;;;4949079;29;20039;-78
2021/05/22 00:38:42;;;;;;;1.65;0.60;;;11.50;99.90;;;;;;4933827;29;20031;-79
2021/05/22 00:41:07;;;;;;;0.52;0.40;;;11.40;99.90;;;;;;4937997;29;20036;-79
2021/05/22 00:43:33;;;;;;;0.82;0.40;;;11.40;99.90;;;;;;4940649;29;20373;-77
2021/05/22 00:45:58;;;;;;;2.53;0.60;;;11.40;99.90;;;;;;4940521;29;20123;-77
2021/05/22 00:48:24;;;;;;;0.80;0.40;;;11.30;99.90;;;;;;4940350;29;20030;-78
2021/05/22 00:50:52;;;;;;;0.73;0.50;;;11.30;99.90;;;;;;4940750;29;20020;-77
2021/05/22 00:53:19;;;;;;;1.05;0.77;;;11.20;99.90;;;;;;4940898;29;20023;-77
2021/05/22 00:55:45;;;;;;;1.08;0.40;;;11.20;99.90;;;;;;4940487;29;20027;-78
2021/05/22 00:58:11;;;;;;;12.82;2.55;;;11.20;99.90;;;;;;4940827;29;20032;-78
2021/05/22 01:00:42;;;;;;;1.75;0.40;;;11.20;99.90;;;;;;4940504;29;20500;-78
2021/05/22 01:03:13;;;;;;;1.30;0.50;;;11.10;99.90;;;;;;4940621;29;20062;-76
2021/05/22 01:05:42;;;;;;;2.65;0.40;;;11.10;99.90;;;;;;4940356;29;20396;-78
2021/05/22 01:08:20;;;;;;;1.55;0.60;;;11.10;99.90;;;;;;4940319;29;20400;-78
2021/05/22 01:10:55;;;;;;;1.35;0.50;;;11.00;99.90;;;;;;4940423;29;20058;-78
2021/05/22 01:13:21;;;;;;;1.83;0.60;;;11.00;99.90;;;;;;4940711;29;20094;-78
2021/05/22 01:15:52;;;;;;;0.50;0.43;;;11.00;99.90;;;;;;4938662;29;20031;-77
2021/05/22 01:18:18;;;;;;;0.73;0.50;;;11.00;99.90;;;;;;4940815;29;20027;-79
2021/05/22 01:20:54;;;;;;;1.98;0.57;;;10.90;99.90;;;;;;4940857;29;20244;-78
2021/05/22 01:23:26;;;;;;;1.60;0.50;;;11.00;99.90;;;;;;4939117;29;20118;-78
2021/05/22 01:25:54;;;;;;;2.58;0.60;;;11.00;99.90;;;;;;4939252;29;20032;-77
2021/05/22 01:28:20;;;;;;;1.77;0.40;;;10.90;99.90;;;;;;4940340;29;20024;-78
2021/05/22 01:30:47;;;;;;;0.98;0.50;;;11.00;99.90;;;;;;4939243;29;20087;-77
2021/05/22 01:33:13;;;;;;;0.40;0.40;;;10.90;99.90;;;;;;4940344;29;20079;-77
2021/05/22 01:35:41;;;;;;;0.77;0.50;;;10.90;99.90;;;;;;4940316;29;20031;-78
2021/05/22 01:38:08;;;;;;;0.90;0.40;;;10.90;99.90;;;;;;4940338;29;20032;-79
2021/05/22 01:40:34;;;;;;;2.03;0.60;;;10.90;99.90;;;;;;4937516;29;20107;-79
2021/05/22 01:43:00;;;;;;;1.77;0.60;;;10.90;99.90;;;;;;4955055;28;20036;-78
2021/05/22 01:45:33;;;;;;;0.98;0.43;;;10.90;99.90;;;;;;4938720;29;20485;-77
2021/05/22 01:48:02;;;;;;;1.23;0.40;;;11.00;99.90;;;;;;4940121;29;20504;-77
2021/05/22 01:50:31;;;;;;;0.52;0.30;;;11.00;99.90;;;;;;4934349;29;20035;-78
2021/05/22 01:52:58;;;;;;;1.13;0.50;;;11.00;99.90;;;;;;4936338;29;20038;-78
2021/05/22 01:55:26;;;;;;;0.57;0.30;;;11.10;99.90;;;;;;4936986;29;20028;-78
2021/05/22 01:57:52;;;;;;;0.80;0.80;;;11.10;99.90;;;;;;4934112;29;20433;-77
2021/05/22 02:00:18;;;;;;;0.90;0.50;;;11.00;99.90;;;;;;4937096;29;20070;-78
2021/05/22 02:03:11;;;;;;;2.92;0.75;;;10.90;99.90;;;;;;4937122;29;20019;-79
2021/05/22 02:05:38;;;;;;;2.60;0.60;;;10.70;99.90;;;;;;4937280;29;20027;-78
2021/05/22 02:08:09;;;;;;;0.60;0.47;;;10.40;99.90;;;;;;4936413;29;20027;-78
2021/05/22 02:10:35;;;;;;;2.08;0.50;;;10.20;99.90;;;;;;4936555;29;20070;-77
2021/05/22 02:13:01;;;;;;;0.70;0.30;;;10.20;99.90;;;;;;4936773;29;20043;-78
2021/05/22 02:15:29;;;;;;;1.10;0.45;;;10.20;99.90;;;;;;4935491;29;20388;-77
2021/05/22 02:17:56;;;;;;;1.10;0.40;;;10.10;99.90;;;;;;4935693;29;20023;-78
2021/05/22 02:20:23;;;;;;;1.55;0.43;;;10.10;99.90;;;;;;4935143;29;20024;-77
2021/05/22 02:22:50;;;;;;;1.75;0.50;;;10.10;99.90;;;;;;4936468;29;20031;-79
2021/05/22 02:25:16;;;;;;;0.60;0.50;;;10.00;99.90;;;;;;4936458;29;20341;-78
2021/05/22 02:27:43;;;;;;;1.05;0.40;;;10.00;99.90;;;;;;4934981;29;20026;-78
2021/05/22 02:30:10;;;;;;;1.42;0.63;;;9.90;99.90;;;;;;4936350;29;20027;-78
2021/05/22 02:32:39;;;;;;;2.15;0.40;;;9.80;99.90;;;;;;4936390;29;20095;-77
2021/05/22 02:35:06;;;;;;;0.30;0.30;;;9.80;1.00;;;;;;4935952;29;20511;-78
2021/05/22 02:37:33;;;;;;;0.40;0.30;;;9.70;1.00;;;;;;4936694;29;20028;-78
2021/05/22 02:40:02;;;;;;;0.63;0.45;;;9.60;1.00;;;;;;4934033;29;20032;-78
2021/05/22 02:42:31;;;;;;;0.98;0.50;;;9.50;1.00;;;;;;4934593;29;20038;-77
2021/05/22 02:44:58;;;;;;;0.38;0.38;;;9.50;1.00;;;;;;4935672;29;20385;-76
2021/05/22 02:47:26;;;;;;;0.70;0.50;;;9.50;1.00;;;;;;4936186;29;20051;-77
2021/05/22 02:49:58;;;;;;;0.88;0.30;;;9.50;1.00;;;;;;4936166;29;20433;-77
2021/05/22 02:52:26;;;;;;;1.75;0.73;;;9.50;1.00;;;;;;4936077;29;20027;-78
2021/05/22 02:54:53;;;;;;;0.63;0.30;;;9.50;1.00;;;;;;4936311;29;20062;-78
2021/05/22 02:57:20;;;;;;;2.33;0.50;;;9.70;1.00;;;;;;4946838;29;20019;-78
2021/05/22 02:59:49;;;;;;;0.70;0.47;;;9.70;1.00;;;;;;4959888;29;20035;-77
2021/05/22 03:02:16;;;;;;;1.52;0.50;;;9.70;1.00;;;;;;4942096;29;20035;-77
2021/05/22 03:04:42;;;;;;;1.50;0.50;;;9.70;1.00;;;;;;4935344;29;20027;-77
2021/05/22 03:07:08;;;;;;;2.60;0.60;;;9.70;1.00;;;;;;4935974;29;20446;-78
2021/05/22 03:09:33;;;;;;;0.50;0.50;;;9.70;1.00;;;;;;4935378;29;20078;-77
2021/05/22 03:11:59;;;;;;;2.50;0.60;;;9.70;1.00;;;;;;4935610;29;20429;-77
2021/05/22 03:14:25;;;;;;;1.60;0.60;;;9.70;1.00;;;;;;4935657;29;20023;-77
2021/05/22 03:16:50;;;;;;;1.08;0.47;;;9.70;1.00;;;;;;4935195;29;20063;-77
2021/05/22 03:19:16;;;;;;;0.93;0.55;;;9.70;1.00;;;;;;4950980;29;20028;-78
2021/05/22 03:21:41;;;;;;;2.47;0.80;;;9.70;1.00;;;;;;4935515;29;20023;-76
2021/05/22 03:24:08;;;;;;;1.02;0.63;;;9.70;1.00;;;;;;4934753;29;20027;-77
2021/05/22 03:26:33;;;;;;;3.47;0.85;;;9.70;1.00;;;;;;4935465;29;20027;-78
2021/05/22 03:28:59;;;;;;;0.90;0.70;;;9.70;1.00;;;;;;4934791;29;20024;-78
2021/05/22 03:31:25;;;;;;;0.95;0.40;;;9.70;1.00;;;;;;4949999;29;20022;-78
2021/05/22 03:33:50;;;;;;;1.52;0.70;;;9.80;1.00;;;;;;4934069;29;20038;-77
2021/05/22 03:36:16;;;;;;;1.15;0.68;;;9.80;1.00;;;;;;4949651;29;20028;-78
2021/05/22 03:38:41;;;;;;;1.52;0.80;;;9.80;1.00;;;;;;4934451;29;20422;-78
2021/05/22 03:41:07;;;;;;;0.77;0.73;;;9.70;1.00;;;;;;4951750;28;20055;-78
2021/05/22 03:43:32;;;;;;;2.67;0.90;;;9.80;1.00;;;;;;4934706;29;20036;-78
2021/05/22 03:45:58;;;;;;;2.85;0.85;;;9.80;1.00;;;;;;4933499;29;20035;-78
2021/05/22 03:48:24;;;;;;;2.35;1.10;;;9.80;1.00;;;;;;4933662;29;20414;-77
2021/05/22 03:50:49;;;;;;;1.88;0.95;;;9.80;1.00;;;;;;4934836;29;20016;-77
2021/05/22 03:53:15;;;;;;;2.08;1.17;;;9.80;1.00;;;;;;4934665;29;20381;-77
2021/05/22 03:55:41;;;;;;;1.75;0.63;;;9.80;1.00;;;;;;4930815;29;20397;-78
2021/05/22 03:58:07;;;;;;;0.95;0.60;;;9.90;1.00;;;;;;4934793;29;20037;-78
2021/05/22 04:00:33;;;;;;;2.63;1.05;;;9.90;1.00;;;;;;4934146;29;20028;-76
2021/05/22 04:02:59;;;;;;;2.08;1.00;;;10.00;1.00;;;;;;4934564;29;20035;-77
2021/05/22 04:05:25;;;;;;;2.20;0.82;;;10.00;1.00;;;;;;4934367;29;20042;-77
2021/05/22 04:07:50;;;;;;;3.40;1.00;;;10.00;1.00;;;;;;4929937;29;20024;-77
2021/05/22 04:10:16;;;;;;;3.55;1.02;;;10.00;1.00;;;;;;4932704;29;20043;-77
2021/05/22 04:12:41;;;;;;;2.65;1.15;;;10.00;1.00;;;;;;4933215;29;20016;-77
2021/05/22 04:15:07;;;;;;;3.53;0.70;;;10.10;1.00;;;;;;4934104;29;20075;-77
2021/05/22 04:17:33;;;;;;;1.98;0.73;;;10.10;1.00;;;;;;4934573;29;20074;-77
2021/05/22 04:19:58;;;;;;;3.92;0.70;;;10.10;1.00;;;;;;4934726;29;20023;-78
2021/05/22 04:22:24;;;;;;;2.05;1.13;;;10.10;1.00;;;;;;4934414;29;20032;-77
2021/05/22 04:24:50;;;;;;;0.77;0.60;;;10.10;1.00;;;;;;4934944;29;20028;-78
2021/05/22 04:27:15;;;;;;;2.38;1.13;;;10.10;1.00;;;;;;4934199;29;20381;-77
2021/05/22 04:29:41;;;;;;;2.33;0.70;;;10.10;1.00;;;;;;4934256;29;20437;-78
2021/05/22 04:32:06;;;;;;;2.10;0.70;;;10.10;1.00;;;;;;4949223;29;20027;-77
2021/05/22 04:34:32;;;;;;;2.67;0.77;;;10.10;1.00;;;;;;4934141;29;20158;-78
2021/05/22 04:36:58;;;;;;;2.28;1.30;;;10.10;1.00;;;;;;4948938;28;20078;-78
2021/05/22 04:39:23;;;;;;;1.40;0.88;;;10.10;1.00;;;;;;4932993;29;20329;-78
2021/05/22 04:41:49;;;;;;;2.28;0.70;;;10.10;1.00;;;;;;4933829;29;20102;-77
2021/05/22 04:44:14;;;;;;;1.80;0.70;;;10.00;1.00;;;;;;4934141;29;20032;-78
2021/05/22 04:46:40;;;;;;;2.22;0.68;;;10.00;1.00;;;;;;4933169;29;20489;-78
2021/05/22 04:49:06;;;;;;;2.10;0.90;;;9.90;1.00;;;;;;4934360;29;20020;-78
2021/05/22 04:51:32;;;;;;;2.33;0.70;;;10.30;1.00;;;;;;4933850;29;20024;-78
2021/05/22 04:54:06;;;;;;;1.48;0.50;;;11.00;1.00;;;;;;4934002;29;20082;-78
2021/05/22 04:56:32;;;;;;;0.77;0.65;;;11.90;99.90;;;;;;4934487;29;20027;-77
2021/05/22 04:58:58;;;;;;;0.52;0.40;;;12.70;99.90;;;;;;4932933;29;20028;-77
2021/05/22 05:01:24;;;;;;;1.55;0.50;;;13.40;99.90;;;;;;4933845;29;20103;-76
2021/05/22 05:03:49;;;;;;;0.60;0.40;;;13.90;99.90;;;;;;4933317;29;20039;-77
2021/05/22 05:06:15;;;;;;;0.68;0.40;;;14.50;85.70;;;;;;4932839;29;20448;-78
2021/05/22 05:08:41;;;;;;;1.67;0.60;;;15.10;1.00;;;;;;4932933;29;20042;-77
2021/05/22 05:11:06;;;;;;;1.30;0.60;;;15.30;1.00;;;;;;4933709;29;20035;-78
2021/05/22 05:13:32;;;;;;;1.35;0.57;;;14.60;1.00;;;;;;4933951;29;20092;-77
2021/05/22 05:15:58;;;;;;;1.17;0.40;;;13.90;1.00;;;;;;4932589;29;20031;-77
2021/05/22 05:18:24;;;;;;;1.77;0.65;;;13.20;99.90;;;;;;4933041;29;20412;-77
2021/05/22 05:20:49;;;;;;;1.02;0.80;;;12.70;99.90;;;;;;4934201;29;20035;-78
2021/05/22 05:23:15;;;;;;;0.52;0.40;;;13.00;99.90;;;;;;4933285;29;20035;-78
2021/05/22 05:25:41;;;;;;;0.32;0.30;;;13.80;99.90;;;;;;4932674;29;20179;-78
2021/05/22 05:28:06;;;;;;;1.83;0.82;;;14.40;34.90;;;;;;4936546;29;20032;-78
2021/05/22 05:30:32;;;;;;;1.60;0.43;;;14.80;1.00;;;;;;4937708;29;20028;-78
2021/05/22 05:32:57;;;;;;;0.93;0.40;;;15.00;1.00;;;;;;4935931;29;20019;-77
2021/05/22 05:35:23;;;;;;;0.30;0.28;;;15.50;99.90;;;;;;4937297;29;20103;-78
2021/05/22 05:37:49;;;;;;;0.98;0.38;;;15.60;99.90;;;;;;4935685;29;20031;-78
2021/05/22 05:40:14;;;;;;;1.80;0.50;;;14.80;1.00;;;;;;4936464;29;20102;-78
2021/05/22 05:42:40;;;;;;;1.25;0.63;;;14.10;1.00;;;;;;4951902;28;20030;-78
2021/05/22 05:45:07;;;;;;;1.05;0.50;;;13.80;79.20;;;;;;4937178;29;20082;-78
2021/05/22 05:47:32;;;;;;;0.52;0.52;;;14.00;83.40;;;;;;4936758;29;20028;-77
2021/05/22 05:49:58;;;;;;;1.75;0.50;;;14.10;51.30;;;;;;4936642;29;20078;-78
2021/05/22 05:52:24;;;;;;;1.63;0.47;;;14.00;24.20;;;;;;4952212;28;20027;-77
2021/05/22 05:54:49;;;;;;;3.03;0.73;;;14.20;13.20;;;;;;4937298;29;20072;-77
2021/05/22 05:57:15;;;;;;;1.70;1.05;;;14.50;1.00;;;;;;4936757;29;20429;-77
2021/05/22 05:59:40;;;;;;;4.60;0.50;;;14.50;1.00;;;;;;4935655;29;20039;-77
2021/05/22 06:02:06;;;;;;;2.63;1.00;;;14.30;1.00;;;;;;4936842;29;20114;-78
2021/05/22 06:04:32;;;;;;;1.50;0.57;;;14.80;1.00;;;;;;4940723;29;20032;-78
2021/05/22 06:06:57;;;;;;;0.95;0.68;;;15.20;1.00;;;;;;4959746;29;20027;-78
2021/05/22 06:09:23;;;;;;;1.00;0.57;;;15.70;99.90;;;;;;4954748;29;20441;-77
2021/05/22 06:11:49;;;;;;;2.28;1.00;;;15.40;99.90;;;;;;4937741;29;20048;-77
2021/05/22 06:14:30;;;;;;;1.25;0.60;;;15.50;99.90;;;;;;4936459;29;20110;-78
2021/05/22 06:16:56;;;;;;;3.45;0.60;;;15.30;99.90;;;;;;4936174;29;20091;-79
2021/05/22 06:19:22;;;;;;;2.88;1.10;;;15.30;1.00;;;;;;4936993;29;20473;-78
2021/05/22 06:21:47;;;;;;;2.65;0.70;;;15.00;99.90;;;;;;4936406;29;20080;-76
2021/05/22 06:24:13;;;;;;;1.95;0.70;;;14.60;1.00;;;;;;4936404;29;20078;-78
2021/05/22 06:26:38;;;;;;;1.08;0.57;;;14.40;3.50;;;;;;4935102;29;20036;-77
2021/05/22 06:29:04;;;;;;;3.15;1.45;;;14.50;30.40;;;;;;4951591;28;20114;-78
2021/05/22 06:31:29;;;;;;;1.42;0.80;;;14.30;82.50;;;;;;4936717;29;20062;-77
2021/05/22 06:33:55;;;;;;;1.35;0.80;;;14.40;1.00;;;;;;4935294;29;20400;-78
2021/05/22 06:36:21;;;;;;;2.78;1.00;;;14.30;1.00;;;;;;4956100;28;20104;-78
2021/05/22 06:38:46;;;;;;;2.00;0.65;;;14.00;38.10;;;;;;4950634;28;20115;-78
2021/05/22 06:41:12;;;;;;;3.65;0.85;;;13.90;90.20;;;;;;4936429;29;20040;-79
2021/05/22 06:43:37;;;;;;;2.72;0.90;;;14.00;1.00;;;;;;4935854;29;20544;-79
2021/05/22 06:46:46;;;;;;;4.32;0.75;;;14.20;10.20;;;;;;4935524;29;20028;-80
2021/05/22 06:48:48;;;;;;;3.20;0.63;;;14.20;1.00;;;;;;4937155;29;20460;-81
2021/05/22 06:51:14;;;;;;;4.20;0.80;;;14.40;1.00;;;;;;4952048;28;20027;-81
2021/05/22 06:53:40;;;;;;;4.47;1.00;;;14.50;1.00;;;;;;4952113;28;20032;-81
2021/05/22 06:56:05;;;;;;;2.47;1.10;;;14.80;99.90;;;;;;4937424;29;20047;-80
2021/05/22 06:58:31;;;;;;;1.27;0.80;;;15.00;99.90;;;;;;4936475;29;20024;-80
2021/05/22 07:00:57;;;;;;;2.40;0.77;;;14.70;99.90;;;;;;4937917;29;20504;-81
2021/05/22 07:03:23;;;;;;;2.25;0.75;;;14.50;99.90;;;;;;4952334;29;20059;-80
2021/05/22 07:05:49;;;;;;;2.22;0.60;;;14.40;99.90;;;;;;4951594;28;20019;-80
2021/05/22 07:08:16;;;;;;;3.35;1.00;;;14.10;99.90;;;;;;4951470;29;20031;-80
2021/05/22 07:10:42;;;;;;;2.78;0.70;;;14.10;99.90;;;;;;4936044;29;20111;-81
2021/05/22 07:13:08;;;;;;;3.92;1.30;;;14.00;99.90;;;;;;4936822;29;20078;-81
2021/05/22 07:15:34;;;;;;;2.20;1.15;;;14.10;99.90;;;;;;4937200;29;20220;-80
2021/05/22 07:18:00;;;;;;;4.07;0.73;;;14.20;99.90;;;;;;4951488;28;20118;-80
2021/05/22 07:20:25;;;;;;;4.47;2.05;;;14.30;99.90;;;;;;4951630;29;20111;-80
2021/05/22 07:22:51;;;;;;;3.67;1.63;;;14.50;99.90;;;;;;4935633;29;20027;-80
2021/05/22 07:25:20;;;;;;;4.30;0.98;;;14.70;99.90;;;;;;4935330;29;20031;-81
2021/05/22 07:27:49;;;;;;;4.50;0.95;;;14.40;59.10;;;;;;4935597;29;20019;-80
2021/05/22 07:30:16;;;;;;;7.20;1.02;;;14.60;99.90;;;;;;4933486;29;20031;-81
2021/05/22 07:32:42;;;;;;;4.05;0.90;;;14.50;1.00;;;;;;4936397;29;20032;-81
2021/05/22 07:35:10;;;;;;;2.92;0.70;;;14.30;1.00;;;;;;4952596;28;20506;-81
2021/05/22 07:37:37;;;;;;;2.25;1.10;;;14.60;1.00;;;;;;4952485;28;20038;-82
2021/05/22 07:40:03;;;;;;;2.05;0.80;;;14.80;69.00;;;;;;4937068;29;20035;-82
2021/05/22 07:42:31;;;;;;;4.30;1.02;;;15.10;99.90;;;;;;4937256;29;20046;-81
2021/05/22 07:44:56;;;;;;;5.20;1.27;;;15.50;99.90;;;;;;4944983;29;20024;-80
2021/05/22 07:47:23;;;;;;;5.53;1.30;;;15.40;99.90;;;;;;4942235;29;20038;-79
2021/05/22 07:49:50;;;;;;;2.47;0.70;;;15.30;1.00;;;;;;4950807;28;20051;-80
2021/05/22 07:52:16;;;;;;;2.85;0.60;;;15.40;99.90;;;;;;4937239;29;20023;-81
2021/05/22 07:54:42;;;;;;;1.95;1.17;;;15.30;99.90;;;;;;4937406;29;20027;-82
2021/05/22 07:57:09;;;;;;;2.45;0.80;;;14.70;1.00;;;;;;4937127;29;20175;-82
2021/05/22 07:59:36;;;;;;;1.92;0.63;;;14.40;99.90;;;;;;4937299;29;20484;-81
2021/05/22 08:02:02;;;;;;;3.50;0.80;;;14.30;1.00;;;;;;4937391;29;20042;-83
2021/05/22 08:04:28;;;;;;;2.38;0.90;;;14.40;99.90;;;;;;4951756;28;20035;-81
2021/05/22 08:06:53;;;;;;;3.22;1.00;;;14.60;1.00;;;;;;4951237;28;20500;-81
2021/05/22 08:09:19;;;;;;;3.83;0.80;;;14.80;99.90;;;;;;4951237;29;20024;-80
2021/05/22 08:11:45;;;;;;;5.97;0.90;;;15.00;1.00;;;;;;4937066;29;20516;-82
2021/05/22 08:14:11;;;;;;;6.10;0.88;;;15.00;99.90;;;;;;4951189;28;20020;-83
2021/05/22 08:16:37;;;;;;;4.10;0.95;;;15.30;99.90;;;;;;4937052;29;20488;-81
2021/05/22 08:19:07;;;;;;;2.00;0.60;;;15.30;99.90;;;;;;4951763;29;20038;-81
2021/05/22 08:21:32;;;;;;;4.90;0.70;;;15.50;99.90;;;;;;4937052;29;20440;-83
2021/05/22 08:23:58;;;;;;;4.10;0.60;;;15.80;94.90;;;;;;4951881;28;20027;-80
2021/05/22 08:26:24;;;;;;;1.45;0.60;;;16.10;76.10;;;;;;4937332;29;20027;-82
2021/05/22 08:28:51;;;;;;;2.30;0.60;;;16.50;52.70;;;;;;4937350;29;20039;-82
2021/05/22 08:31:17;;;;;;;1.60;0.75;;;16.50;25.40;;;;;;4943064;29;20403;-83
2021/05/22 08:33:44;;;;;;;4.72;0.85;;;16.50;24.80;;;;;;4955485;29;20042;-81
2021/05/22 08:36:10;;;;;;;2.78;0.85;;;16.50;20.70;;;;;;4973692;28;20024;-80
2021/05/22 08:38:36;;;;;;;1.65;0.90;;;16.50;1.00;;;;;;4957944;29;20043;-80
2021/05/22 08:41:02;;;;;;;5.40;1.08;;;16.50;1.00;;;;;;4974548;28;20035;-83
2021/05/22 08:43:27;;;;;;;2.28;0.80;;;16.60;1.00;;;;;;4973266;28;20028;-83
2021/05/22 08:45:53;;;;;;;2.88;0.68;;;16.60;1.00;;;;;;4973265;28;20039;-85
2021/05/22 08:48:20;;;;;;;2.70;1.00;;;16.50;1.00;;;;;;4957491;29;20056;-83
2021/05/22 08:50:46;;;;;;;1.58;0.68;;;16.90;1.00;;;;;;4958899;29;20043;-84
2021/05/22 08:53:12;;;;;;;2.22;1.27;;;17.10;1.00;;;;;;4959277;29;20023;-82
2021/05/22 08:55:38;;;;;;;3.33;0.85;;;17.40;1.00;;;;;;4974561;28;20088;-83
2021/05/22 08:58:04;;;;;;;3.78;1.25;;;17.20;1.00;;;;;;4964302;28;20104;-80
2021/05/22 09:00:32;;;;;;;2.35;0.82;;;16.70;1.00;;;;;;4955766;29;20437;-86
2021/05/22 09:02:57;;;;;;;1.95;0.60;;;16.30;1.00;;;;;;4961936;29;20400;-85
2021/05/22 09:05:29;;;;;;;3.30;0.95;;;16.60;1.00;;;;;;4960807;29;20055;-86
2021/05/22 09:08:00;;;;;;;3.47;0.65;;;16.80;1.00;;;;;;4950349;29;20626;-82
2021/05/22 09:10:33;;;;;;;2.08;1.20;;;16.90;1.00;;;;;;4951729;29;20008;-83
2021/05/22 09:13:04;;;;;;;1.40;0.68;;;17.20;1.00;;;;;;4959851;28;20031;-84
2021/05/22 09:15:41;;;;;;;;;;;16.80;1.00;;;;;;4945725;29;20399;-81
2021/05/22 09:18:18;;;;;;;3.30;0.50;;;16.90;1.00;;;;;;4960147;28;19907;-81
2021/05/22 09:20:51;;;;;;;1.38;0.50;;;17.20;1.00;;;;;;4943756;29;20088;-82
2021/05/22 09:23:25;;;;;;;1.88;0.70;;;17.20;1.00;;;;;;4958280;28;20024;-82
2021/05/22 09:25:56;;;;;;;1.60;0.57;;;17.10;1.00;;;;;;4942106;29;20392;-82
2021/05/22 09:28:30;;;;;;;1.50;0.63;;;17.30;1.00;;;;;;4944601;29;20035;-82
2021/05/22 09:30:59;;;;;;;1.50;0.73;;;17.50;1.00;;;;;;4943697;29;20042;-81
2021/05/22 09:33:27;;;;;;;2.28;0.55;;;17.40;1.00;;;;;;4942534;29;20102;-82
2021/05/22 09:35:58;;;;;;;2.28;0.70;;;17.70;1.00;;;;;;4955409;29;20028;-80
2021/05/22 09:38:42;;;;;;;1.85;0.60;;;17.30;1.00;;;;;;4940549;29;20024;-82
2021/05/22 09:41:21;;;;;;;3.55;0.70;;;17.40;1.00;;;;;;4956021;28;20027;-82
2021/05/22 09:44:11;;;;;;;2.50;0.70;;;17.50;1.00;;;;;;4955628;28;20510;-81
2021/05/22 09:46:58;;;;;;;2.25;1.10;;;17.90;1.00;;;;;;4940852;29;20035;-82
2021/05/22 09:49:30;;;;;;;2.05;0.70;;;18.00;1.00;;;;;;4956664;29;20079;-81
2021/05/22 09:52:00;;;;;;;1.60;0.65;;;18.10;1.00;;;;;;4961721;29;20031;-78
2021/05/22 09:54:39;;;;;;;2.35;0.70;;;18.10;1.00;;;;;;4946945;29;20020;-81
2021/05/22 09:57:04;;;;;;;1.38;0.60;;;17.90;1.00;;;;;;4955931;29;20028;-82
2021/05/22 09:59:30;;;;;;;2.05;0.57;;;17.70;1.00;;;;;;4941383;29;20107;-81
2021/05/22 10:01:58;;;;;;;1.50;0.68;;;17.80;1.00;;;;;;4940620;29;20038;-80
2021/05/22 10:04:24;;;;;;;1.85;0.70;;;17.90;1.00;;;;;;4940077;29;20049;-82
2021/05/22 10:06:49;;;;;;;1.08;0.60;;;17.90;1.00;;;;;;4941224;29;20032;-80
2021/05/22 10:09:17;;;;;;;2.03;0.88;;;17.90;1.00;;;;;;4938189;29;20035;-81
2021/05/22 10:12:10;;;;;;;1.50;0.40;;;18.00;1.00;;;;;;4955360;28;20051;-79
2021/05/22 10:14:36;;;;;;;2.92;0.60;;;17.60;1.00;;;;;;4939415;29;20026;-80
2021/05/22 10:17:03;;;;;;;2.75;1.08;;;17.50;1.00;;;;;;4940648;29;20102;-82
2021/05/22 10:19:31;;;;;;;2.90;1.25;;;17.60;1.00;;;;;;4955248;28;20035;-81
2021/05/22 10:21:58;;;;;;;2.63;0.68;;;17.80;1.00;;;;;;4943331;29;20028;-81
2021/05/22 10:24:25;;;;;;;2.38;0.60;;;18.20;1.00;;;;;;4944333;29;20031;-82
2021/05/22 10:26:51;;;;;;;1.70;0.60;;;18.40;1.00;;;;;;4949703;29;20039;-82
2021/05/22 10:29:18;;;;;;;2.50;0.90;;;18.30;1.00;;;;;;4975225;28;20138;-83
2021/05/22 10:31:44;;;;;;;3.05;0.52;;;18.50;1.00;;;;;;4960410;29;20012;-84
2021/05/22 10:34:15;;;;;;;8.07;1.25;;;18.50;1.00;;;;;;4975783;28;20023;-85
2021/05/22 10:36:51;;;;;;;2.80;1.02;;;18.80;1.00;;;;;;4960760;29;20040;-83
2021/05/22 10:39:38;;;;;;;5.95;0.95;;;19.00;1.00;;;;;;4960625;29;20012;-83
2021/05/22 10:42:04;;;;;;;2.15;0.60;;;19.40;1.00;;;;;;4960831;29;20008;-82
2021/05/22 10:44:37;;;;;;;3.45;0.85;;;19.50;1.00;;;;;;4960612;29;20024;-84
2021/05/22 10:47:13;;;;;;;3.35;1.33;;;19.20;1.00;;;;;;4954681;29;20059;-81
2021/05/22 10:49:58;;;;;;;1.88;0.55;;;19.20;1.00;;;;;;4940124;29;20031;-79
2021/05/22 10:52:29;;;;;;;0.55;0.55;;;19.30;1.00;;;;;;4953891;29;20051;-82
2021/05/22 10:55:04;;;;;;;;;;;19.70;1.00;;;;;;4953841;28;20090;-81
2021/05/22 10:57:32;;;;;;;2.80;0.70;;;19.60;1.00;;;;;;4955420;28;19914;-81
2021/05/22 11:00:17;;;;;;;2.65;0.60;;;19.40;1.00;;;;;;4953940;28;20055;-81
2021/05/22 11:02:54;;;;;;;1.20;0.60;;;19.50;1.00;;;;;;4938870;29;20036;-82
2021/05/22 11:05:32;;;;;;;1.40;0.50;;;19.70;1.00;;;;;;4938821;29;20392;-80
2021/05/22 11:08:06;;;;;;;1.27;0.45;;;19.90;1.00;;;;;;4953231;29;20036;-81
2021/05/22 11:10:35;;;;;;;1.08;0.52;;;19.80;1.00;;;;;;4944653;29;20095;-82
2021/05/22 11:13:06;;;;;;;1.20;1.05;;;19.40;1.00;;;;;;4973524;29;20036;-82
2021/05/22 11:15:51;;;;;;;1.77;0.65;;;19.00;1.00;;;;;;4955351;29;20032;-82
2021/05/22 11:18:21;;;;;;;1.80;0.70;;;19.00;1.00;;;;;;4972452;29;20023;-83
2021/05/22 11:21:24;;;;;;;1.25;0.50;;;19.20;1.00;;;;;;4975419;28;20099;-84
2021/05/22 11:23:59;;;;;;;1.13;0.40;;;19.40;1.00;;;;;;4974604;28;20107;-78
2021/05/22 11:26:53;;;;;;;1.83;0.52;;;19.10;1.00;;;;;;4938285;29;20095;-80
2021/05/22 11:29:19;;;;;;;1.80;0.50;;;19.50;1.00;;;;;;4937194;29;20425;-78
2021/05/22 11:31:45;;;;;;;1.52;0.45;;;19.70;1.00;;;;;;4936540;29;20433;-80
2021/05/22 11:34:20;;;;;;;4.00;0.70;;;19.40;1.00;;;;;;4936710;29;20043;-79
2021/05/22 11:37:11;;;;;;;1.25;0.50;;;19.00;1.00;;;;;;4934884;29;20051;-79
2021/05/22 11:39:37;;;;;;;0.77;0.40;;;18.60;1.00;;;;;;4934844;29;20031;-80
2021/05/22 11:42:33;;;;;;;0.60;0.40;;;18.50;1.00;;;;;;4935024;29;20246;-79
2021/05/22 11:45:05;;;;;;;2.67;0.70;;;18.90;1.00;;;;;;4931889;29;20050;-79
2021/05/22 11:47:32;;;;;;;1.45;0.45;;;19.40;1.00;;;;;;4934440;29;20035;-79
2021/05/22 11:49:59;;;;;;;1.13;0.50;;;20.00;1.00;;;;;;4936251;29;20016;-81
2021/05/22 11:52:29;;;;;;;2.38;0.50;;;20.10;1.00;;;;;;4950638;28;20023;-79
2021/05/22 11:54:56;;;;;;;1.95;0.70;;;20.30;1.00;;;;;;4936784;29;20373;-80
2021/05/22 11:57:21;;;;;;;3.70;0.50;;;20.00;1.00;;;;;;4935094;29;20032;-79
2021/05/22 11:59:47;;;;;;;1.52;0.40;;;19.80;1.00;;;;;;4934953;29;20019;-75
2021/05/22 12:02:12;;;;;;;0.80;0.50;;;19.40;1.00;;;;;;4933021;29;20452;-76
2021/05/22 12:04:49;;;;;;;0.93;0.57;;;19.60;1.00;;;;;;4934779;29;20024;-75
2021/05/22 12:07:15;;;;;;;0.70;0.40;;;20.00;1.00;;;;;;4933797;29;20114;-79
2021/05/22 12:09:40;;;;;;;1.15;0.50;;;19.80;1.00;;;;;;4933740;29;20063;-74
2021/05/22 12:12:11;;;;;;;3.13;0.55;;;19.80;1.00;;;;;;4934727;29;20023;-77
2021/05/22 12:14:41;;;;;;;2.30;0.60;;;19.70;1.00;;;;;;4934831;29;20396;-79
2021/05/22 12:17:09;;;;;;;1.83;0.70;;;19.30;1.00;;;;;;4934145;29;20054;-79
2021/05/22 12:19:40;;;;;;;1.67;0.70;;;19.20;1.00;;;;;;4934115;29;20070;-78
2021/05/22 12:22:05;;;;;;;;;;;19.30;1.00;;;;;;4935450;29;20523;-79
2021/05/22 12:24:32;;;;;;;1.52;0.50;;;19.10;1.00;;;;;;4934665;29;19918;-79
2021/05/22 12:26:58;;;;;;;2.35;1.30;;;19.30;1.00;;;;;;4934450;29;20480;-77
2021/05/22 12:29:28;;;;;;;3.08;0.85;;;19.30;1.00;;;;;;4933553;29;20444;-79
2021/05/22 12:32:05;;;;;;;2.80;0.70;;;19.60;1.00;;;;;;4935872;29;20028;-77
2021/05/22 12:34:32;;;;;;;0.95;0.60;;;19.90;1.00;;;;;;4936815;29;20020;-79
2021/05/22 12:37:02;;;;;;;0.90;0.60;;;20.00;1.00;;;;;;4934967;29;20091;-79
2021/05/22 12:39:32;;;;;;;0.68;0.40;;;19.60;1.00;;;;;;4935249;29;20043;-79
2021/05/22 12:41:58;;;;;;;1.02;0.50;;;19.60;1.00;;;;;;4933534;29;20071;-80
2021/05/22 12:44:24;;;;;;;1.95;0.88;;;19.80;1.00;;;;;;4950299;29;20035;-79
2021/05/22 12:46:55;;;;;;;0.90;0.60;;;20.10;1.00;;;;;;4934198;29;20035;-78
2021/05/22 12:49:20;;;;;;;;;;;20.30;1.00;;;;;;4935683;29;20492;-77
2021/05/22 12:52:07;;;;;;;2.35;0.70;;;20.10;1.00;;;;;;4934242;29;19954;-79
2021/05/22 12:54:36;;;;;;;4.25;0.85;;;19.70;1.00;;;;;;4941879;29;20539;-78
2021/05/22 12:57:12;;;;;;;2.35;0.63;;;19.50;1.00;;;;;;4934902;29;20111;-81
2021/05/22 12:59:58;;;;;;;1.58;0.90;;;19.20;1.00;;;;;;4936930;29;20052;-79
2021/05/22 13:02:29;;;;;;;1.13;0.45;;;19.20;1.00;;;;;;4927789;29;20055;-78